KPIA/PIA METAR and TAF weather

Enter ICAO airport designator
Station Type Date Time Source
KPIA METAR 2023/02/04 02:54 UTC NOAA

KPIA 040254Z 16006KT 10SM CLR M09/M19 A3050 RMK AO2 SLP341 T10891189 56021


Station Type Date Time Source
KPIA Decoded METAR 2023/02/04 02:54 UTC NOAA

GREATER PEORIA REGIONAL AIRPORT , IL, United States (KPIA) 40-40N 89-41W 205M
Feb 03, 2023 - 09:54 PM EST / 2023.02.04 0254 UTC
Wind: from the SSE (160 degrees) at 7 MPH (6 KT):0
Visibility: 10 mile(s):0
Sky conditions: clear
Temperature: 16.0 F (-8.9 C)
Windchill: 6 F (-14 C):1
Dew Point: -2.0 F (-18.9 C)
Relative Humidity: 44%
Pressure (altimeter): 30.5 in. Hg (1032 hPa)
Pressure tendency: 0.06 inches (2.1 hPa) lower than three hours ago
ob: KPIA 040254Z 16006KT 10SM CLR M09/M19 A3050 RMK AO2 SLP341 T10891189 56021
cycle: 3

Station Type Date Time Source
KPIA TAF 2023/02/03 18:34 UTC NOAA

TAF KPIA 031732Z 0318/0418 35007KT P6SM BKN120
FM032200 03003KT P6SM FEW250
FM040000 11004KT P6SM SKC
FM040400 15008KT P6SM SKC
FM041000 18012G22KT P6SM SCT250
FM041500 19017G26KT P6SM SCT250

Example: see airport list